SLYA

Yacuiba Airport

Airport
ICAO code
SLYA
IATA Code
BYC
Summary
ICAO Region
CARSAM
ICAO Territory
Location

Yacuiba, Tarija

Serving
Yacuiba
Elevation
2112 ft
Coordinates
21° 57' 39" S , 63° 39' 6" W
KCC
Cwa
Metar
Observation
SLYA 101600Z 35005KT 9999 NSC 18/08 Q1026
Station
Yacuiba
Date/Time
2022-08-10 16:00:00
Wind direction
350°
Wind speed
05 kts
Lowest cloud amount
nil significant cloud
Temperature
18°C
Dew point
8°C
Humidity
52%
QNH
1026 hPa
Weather condition
n/a

Airport 4 km north of Yacuiba, a city in the Tarija Department of Bolivia.

Climatology

Humid sub-tropical climate (Köppen climate classification Cwa).

Runways

Designator Length Width Surface Rops
2/20 2100 36 ASP No/No

Airport map

Aerial View

SKYbrary Partners:

Safety knowledge contributed by: